createdAt,value
2022-12-28T00:00:32.046Z,6.72
2022-12-28T00:05:33.507Z,7.20
2022-12-28T00:11:08.478Z,7.32
2022-12-28T00:15:56.743Z,7.80
2022-12-28T00:20:59.529Z,7.70
2022-12-28T00:26:12.025Z,7.90
2022-12-28T00:31:13.620Z,9.38
2022-12-28T00:36:15.788Z,10.85
2022-12-28T00:41:17.281Z,8.80
2022-12-28T00:46:18.685Z,7.80
2022-12-28T00:51:21.021Z,9.27
2022-12-28T00:56:23.293Z,6.70
2022-12-28T01:01:25.837Z,6.35
2022-12-28T01:06:28.740Z,6.43
2022-12-28T01:11:31.077Z,5.90
2022-12-28T01:16:35.646Z,6.45
2022-12-28T01:21:37.294Z,6.28
2022-12-28T01:26:38.709Z,5.57
2022-12-28T01:31:40.153Z,5.80
2022-12-28T01:36:41.719Z,8.88
2022-12-28T01:41:43.261Z,5.85
2022-12-28T01:46:51.172Z,6.47
2022-12-28T01:52:10.108Z,5.93
2022-12-28T01:57:12.941Z,6.95
2022-12-28T02:02:15.178Z,5.78
2022-12-28T02:07:24.789Z,5.63
2022-12-28T02:17:28.076Z,5.57
2022-12-28T02:22:52.504Z,5.28
2022-12-28T02:28:08.192Z,5.80
2022-12-28T02:33:43.089Z,6.55
2022-12-28T02:38:54.081Z,5.90
2022-12-28T02:43:55.895Z,5.72
2022-12-28T02:49:16.128Z,5.40
2022-12-28T02:55:15.986Z,5.53
2022-12-28T03:00:25.346Z,6.38
2022-12-28T03:06:30.414Z,5.53
2022-12-28T03:11:43.560Z,7.28
2022-12-28T03:17:08.733Z,6.70
2022-12-28T03:22:30.457Z,6.03
2022-12-28T03:27:52.583Z,5.43
2022-12-28T03:32:55.168Z,6.07
2022-12-28T03:38:00.832Z,6.75
2022-12-28T03:43:29.229Z,6.53
2022-12-28T03:48:34.537Z,6.82
2022-12-28T03:53:43.250Z,5.90
2022-12-28T03:58:45.402Z,5.67
2022-12-28T04:03:47.136Z,5.75
2022-12-28T04:08:48.643Z,7.88
2022-12-28T04:13:50.102Z,6.68
2022-12-28T04:18:51.585Z,8.30
2022-12-28T04:23:53.095Z,6.85
2022-12-28T04:28:54.801Z,5.93
2022-12-28T04:33:59.533Z,5.57
2022-12-28T04:39:01.087Z,5.80
2022-12-28T04:44:02.653Z,5.50
2022-12-28T04:49:04.838Z,5.70
2022-12-28T04:54:07.616Z,5.82
2022-12-28T04:59:09.087Z,10.07
2022-12-28T05:04:10.548Z,9.18
2022-12-28T05:09:11.946Z,9.07
2022-12-28T05:14:13.515Z,7.35
2022-12-28T05:19:15.244Z,7.50
2022-12-28T05:24:16.787Z,7.63
2022-12-28T05:29:18.238Z,9.50
2022-12-28T05:34:19.688Z,6.65
2022-12-28T05:39:21.303Z,5.25
2022-12-28T05:44:22.778Z,5.88
2022-12-28T05:49:24.285Z,6.70
2022-12-28T05:54:25.737Z,6.38
2022-12-28T05:59:27.176Z,5.55
2022-12-28T06:04:28.656Z,5.45
2022-12-28T06:09:30.205Z,5.32
2022-12-28T06:14:31.684Z,5.65
2022-12-28T06:19:33.130Z,5.93
2022-12-28T06:24:34.573Z,6.40
2022-12-28T06:29:35.992Z,6.75
2022-12-28T06:34:37.418Z,5.35
2022-12-28T06:39:38.925Z,5.78
2022-12-28T06:44:44.589Z,8.98
2022-12-28T06:49:46.310Z,6.80
2022-12-28T06:54:47.713Z,6.95
2022-12-28T06:59:49.137Z,6.03
2022-12-28T07:04:50.548Z,6.05
2022-12-28T07:09:51.958Z,4.72
2022-12-28T07:14:53.369Z,5.57
2022-12-28T07:19:55.602Z,5.25
2022-12-28T07:24:57.047Z,4.53
2022-12-28T07:29:58.493Z,4.90
2022-12-28T07:34:59.905Z,7.13
2022-12-28T07:40:01.357Z,4.45
2022-12-28T07:45:02.963Z,4.00
2022-12-28T07:50:04.700Z,4.10
2022-12-28T07:55:06.373Z,3.90
2022-12-28T08:00:08.504Z,4.72
2022-12-28T08:05:09.974Z,4.40
2022-12-28T08:10:11.404Z,5.97
2022-12-28T08:15:12.813Z,5.90
2022-12-28T08:20:14.297Z,8.55
2022-12-28T08:25:15.933Z,6.43
2022-12-28T08:30:17.429Z,5.78
2022-12-28T08:35:18.930Z,4.90
2022-12-28T08:40:20.402Z,6.00
2022-12-28T08:45:21.886Z,3.70
2022-12-28T08:50:29.555Z,3.70
2022-12-28T08:55:32.922Z,3.55
2022-12-28T09:00:34.320Z,3.70
2022-12-28T09:05:40.031Z,3.92
2022-12-28T09:10:41.577Z,3.10
2022-12-28T09:15:43.082Z,2.15
2022-12-28T09:20:47.840Z,2.53
2022-12-28T09:25:49.618Z,2.55
2022-12-28T09:30:51.149Z,2.40
2022-12-28T09:35:57.609Z,3.72
2022-12-28T09:40:59.151Z,3.33
2022-12-28T09:46:00.638Z,3.63
2022-12-28T09:51:02.729Z,3.38
2022-12-28T09:56:28.535Z,4.20
2022-12-28T10:01:30.069Z,3.40
2022-12-28T10:06:35.379Z,2.95
2022-12-28T10:11:41.898Z,3.47
2022-12-28T10:16:48.512Z,2.88
2022-12-28T10:22:00.287Z,3.08
2022-12-28T10:27:05.326Z,8.05
2022-12-28T10:32:12.709Z,5.53
2022-12-28T10:37:16.847Z,3.00
2022-12-28T10:42:32.162Z,2.70
2022-12-28T10:47:41.969Z,3.35
2022-12-28T10:52:43.687Z,2.90
2022-12-28T10:58:18.698Z,3.38
2022-12-28T11:03:18.316Z,2.95
2022-12-28T11:08:19.783Z,2.92
2022-12-28T11:13:22.092Z,2.97
2022-12-28T11:18:24.139Z,3.15
2022-12-28T11:23:31.541Z,2.88
2022-12-28T11:28:33.027Z,3.42
2022-12-28T11:33:48.267Z,3.08
2022-12-28T11:38:51.845Z,3.70
2022-12-28T11:43:57.860Z,4.13
2022-12-28T11:49:26.803Z,3.40
2022-12-28T11:54:40.056Z,2.85
2022-12-28T11:59:41.490Z,3.03
2022-12-28T12:04:45.018Z,2.90
2022-12-28T12:09:48.966Z,4.72
2022-12-28T12:14:57.878Z,3.05
2022-12-28T12:20:05.179Z,2.65
2022-12-28T12:25:32.308Z,2.95
2022-12-28T12:30:35.321Z,2.15
2022-12-28T12:36:22.443Z,2.85
2022-12-28T12:41:46.082Z,2.50
2022-12-28T12:47:35.295Z,1.95
2022-12-28T12:52:53.242Z,2.00
2022-12-28T12:58:08.507Z,2.90
2022-12-28T13:03:16.669Z,3.67
2022-12-28T13:08:42.604Z,2.95
2022-12-28T13:13:47.161Z,3.42
2022-12-28T13:19:00.345Z,3.40
2022-12-28T13:24:01.807Z,2.95
2022-12-28T13:29:09.797Z,3.45
2022-12-28T13:34:16.590Z,2.45
2022-12-28T13:39:20.284Z,2.72
2022-12-28T13:44:38.445Z,2.25
2022-12-28T13:49:52.079Z,2.30
2022-12-28T13:54:57.667Z,2.30
2022-12-28T13:59:59.465Z,2.47
2022-12-28T14:05:01.591Z,2.20
2022-12-28T14:10:04.367Z,2.58
2022-12-28T14:15:07.727Z,2.30
2022-12-28T14:20:10.295Z,2.10
2022-12-28T14:25:17.224Z,2.85
2022-12-28T14:30:31.217Z,2.45
2022-12-28T14:35:32.714Z,3.13
2022-12-28T14:40:36.436Z,2.92
2022-12-28T14:46:07.073Z,2.58
2022-12-28T14:51:17.344Z,4.43
2022-12-28T14:56:19.569Z,3.63
2022-12-28T15:01:22.397Z,3.05
2022-12-28T15:06:29.581Z,3.13
2022-12-28T15:11:31.299Z,3.00
2022-12-28T15:16:32.820Z,4.30
2022-12-28T15:21:34.399Z,3.85
2022-12-28T15:26:35.812Z,4.72
2022-12-28T15:31:37.486Z,4.55
2022-12-28T15:36:38.983Z,4.57
2022-12-28T15:41:46.457Z,4.88
2022-12-28T15:46:51.550Z,4.50
2022-12-28T15:51:53.116Z,5.18
2022-12-28T15:56:55.691Z,5.10
2022-12-28T16:01:57.367Z,4.70
2022-12-28T16:06:58.946Z,5.30
2022-12-28T16:12:00.430Z,4.78
2022-12-28T16:17:01.921Z,5.07
2022-12-28T16:22:03.333Z,5.22
2022-12-28T16:27:05.149Z,4.95
2022-12-28T16:32:06.734Z,5.45
2022-12-28T16:37:10.133Z,5.00
2022-12-28T16:42:11.838Z,4.72
2022-12-28T16:47:13.255Z,5.43
2022-12-28T16:52:14.813Z,5.18
2022-12-28T16:57:16.234Z,4.97
2022-12-28T17:02:17.848Z,5.35
2022-12-28T17:07:19.387Z,8.10
2022-12-28T17:12:20.954Z,7.20
2022-12-28T17:17:22.398Z,5.35
2022-12-28T17:22:23.943Z,4.20
2022-12-28T17:27:25.482Z,4.53
2022-12-28T17:32:27.243Z,4.20
2022-12-28T17:37:28.705Z,4.22
2022-12-28T17:42:30.121Z,4.47
2022-12-28T17:47:31.625Z,5.20
2022-12-28T17:52:33.071Z,5.07
2022-12-28T17:57:38.623Z,4.53
2022-12-28T18:02:40.586Z,4.30
2022-12-28T18:07:42.134Z,4.10
2022-12-28T18:12:43.681Z,4.63
2022-12-28T18:17:45.176Z,4.93
2022-12-28T18:22:46.648Z,4.53
2022-12-28T18:27:48.094Z,4.30
2022-12-28T18:32:49.805Z,4.63
2022-12-28T18:37:51.625Z,4.78
2022-12-28T18:42:53.077Z,5.30
2022-12-28T18:47:54.510Z,5.03
2022-12-28T18:52:56.081Z,5.53
2022-12-28T18:57:57.537Z,4.72
2022-12-28T19:02:59.114Z,5.43
2022-12-28T19:08:00.601Z,6.45
2022-12-28T19:13:02.015Z,6.43
2022-12-28T19:18:03.471Z,7.43
2022-12-28T19:23:04.912Z,7.05
2022-12-28T19:28:07.134Z,6.85
2022-12-28T19:33:08.547Z,6.80
2022-12-28T19:38:09.956Z,7.10
2022-12-28T19:43:11.360Z,6.07
2022-12-28T19:48:12.859Z,7.38
2022-12-28T19:53:14.658Z,5.88
2022-12-28T19:58:16.116Z,5.53
2022-12-28T20:03:18.281Z,7.75
2022-12-28T20:08:19.741Z,8.57
2022-12-28T20:13:21.171Z,9.02
2022-12-28T20:18:22.861Z,7.43
2022-12-28T20:23:24.280Z,6.95
2022-12-28T20:28:25.763Z,6.53
2022-12-28T20:33:27.200Z,8.50
2022-12-28T20:38:31.730Z,7.85
2022-12-28T20:43:33.942Z,8.10
2022-12-28T20:48:35.351Z,6.78
2022-12-28T20:53:36.761Z,6.32
2022-12-28T20:58:39.586Z,5.40
2022-12-28T21:03:41.293Z,4.72
2022-12-28T21:08:42.741Z,4.85
2022-12-28T21:13:45.097Z,3.67
2022-12-28T21:18:46.748Z,3.92
2022-12-28T21:23:48.580Z,3.78
2022-12-28T21:28:51.033Z,5.50
2022-12-28T21:33:56.342Z,6.45
2022-12-28T21:38:57.751Z,6.30
2022-12-28T21:43:59.202Z,5.50
2022-12-28T21:49:03.426Z,5.18
2022-12-28T21:54:12.507Z,5.18
2022-12-28T21:59:14.288Z,5.70
2022-12-28T22:04:37.694Z,4.93
2022-12-28T22:09:58.150Z,5.57
2022-12-28T22:15:19.700Z,5.30
2022-12-28T22:20:22.191Z,5.50
2022-12-28T22:25:24.946Z,8.48
2022-12-28T22:30:27.792Z,6.70
2022-12-28T22:35:29.247Z,6.93
2022-12-28T22:40:30.855Z,7.45
2022-12-28T22:45:32.285Z,6.60
2022-12-28T22:50:36.921Z,4.45
2022-12-28T22:55:42.822Z,5.10
2022-12-28T23:00:44.227Z,3.60
2022-12-28T23:05:52.416Z,3.92
2022-12-28T23:10:56.283Z,5.38
2022-12-28T23:16:03.823Z,5.07
2022-12-28T23:21:24.238Z,4.57
2022-12-28T23:26:44.446Z,5.55
2022-12-28T23:31:45.939Z,5.00
2022-12-28T23:36:47.336Z,5.18
2022-12-28T23:41:51.866Z,3.80
2022-12-28T23:46:58.532Z,3.25
2022-12-28T23:52:00.635Z,3.42
2022-12-28T23:57:02.106Z,3.83
